Time;durP1;ratioP1;P1;durP2;ratioP2;P2;SDS_P1;SDS_P2;PMS_P1;PMS_P2;Temp;Humidity;BMP_temperature;BMP_pressure;BME280_temperature;BME280_humidity;BME280_pressure;Samples;Min_cycle;Max_cycle;Signal;HPM_P1;HPM_P2
2023/10/24 00:04:15;;;;;;;1.02;0.28;;;;;;;20.82;100.00;100225.31;10268535;28;20057;-86
2023/10/24 00:09:16;;;;;;;0.10;0.10;;;;;;;20.21;100.00;100227.75;10281565;28;20651;-84
2023/10/24 00:14:18;;;;;;;0.35;0.20;;;;;;;20.96;100.00;100231.97;10282523;28;20053;-84
2023/10/24 00:19:20;;;;;;;1.27;0.30;;;;;;;21.67;100.00;100220.25;10287296;28;20119;-84
2023/10/24 00:24:22;;;;;;;0.10;0.10;;;;;;;20.63;100.00;100208.38;10285719;28;20045;-82
2023/10/24 00:29:23;;;;;;;0.20;0.20;;;;;;;20.45;100.00;100215.81;10285245;28;20071;-83
2023/10/24 00:34:25;;;;;;;0.50;0.32;;;;;;;21.92;100.00;100202.91;10287423;28;20043;-83
2023/10/24 00:39:27;;;;;;;0.45;0.25;;;;;;;21.36;100.00;100205.47;10284530;28;20047;-83
2023/10/24 00:44:28;;;;;;;0.20;0.10;;;;;;;20.81;100.00;100197.44;10284630;28;20047;-83
2023/10/24 00:49:30;;;;;;;0.43;0.10;;;;;;;21.09;100.00;100191.41;10281343;28;20054;-83
2023/10/24 00:54:34;;;;;;;0.55;0.40;;;;;;;21.18;100.00;100201.63;10284822;28;20093;-83
2023/10/24 00:59:39;;;;;;;0.40;0.30;;;;;;;21.84;100.00;100190.91;10291370;28;20046;-82
2023/10/24 01:04:40;;;;;;;0.63;0.30;;;;;;;20.60;100.00;100189.25;10287902;28;20043;-82
2023/10/24 01:09:42;;;;;;;0.15;0.15;;;;;;;20.88;100.00;100192.88;10286879;28;20049;-82
2023/10/24 01:14:45;;;;;;;0.22;0.17;;;;;;;20.80;100.00;100197.47;10288831;28;20533;-80
2023/10/24 01:19:46;;;;;;;0.05;0.05;;;;;;;21.44;100.00;100197.34;10292259;28;20105;-81
2023/10/24 01:24:50;;;;;;;0.10;0.10;;;;;;;21.67;100.00;100193.19;10284335;28;20049;-82
2023/10/24 01:29:52;;;;;;;0.22;0.22;;;;;;;21.50;100.00;100193.69;10302210;28;20516;-81
2023/10/24 01:34:53;;;;;;;0.13;0.13;;;;;;;21.22;100.00;100191.94;10291451;28;20047;-81
2023/10/24 01:39:55;;;;;;;0.50;0.47;;;;;;;22.16;100.00;100190.75;10288401;28;20042;-81
2023/10/24 01:44:56;;;;;;;0.22;0.22;;;;;;;20.90;100.00;100185.84;10287678;28;20039;-81
2023/10/24 01:49:59;;;;;;;0.00;0.00;;;;;;;21.33;100.00;100178.50;10284520;28;20055;-82
2023/10/24 01:55:01;;;;;;;0.13;0.13;;;;;;;21.23;100.00;100184.00;10283915;28;20047;-82
2023/10/24 02:00:03;;;;;;;0.38;0.32;;;;;;;21.23;100.00;100184.00;10288842;28;20055;-83
2023/10/24 02:05:14;;;;;;;0.38;0.38;;;;;;;21.33;100.00;100184.59;10294405;28;20129;-81
2023/10/24 02:10:16;;;;;;;1.55;0.28;;;;;;;20.64;100.00;100183.94;10276935;28;20425;-82
2023/10/24 02:15:17;;;;;;;0.28;0.20;;;;;;;20.72;100.00;100176.72;10277391;28;20113;-82
2023/10/24 02:20:19;;;;;;;0.60;0.50;;;;;;;20.96;100.00;100175.19;10276077;28;20047;-82
2023/10/24 02:25:20;;;;;;;0.15;0.05;;;;;;;21.22;100.00;100182.28;10287378;28;20047;-81
2023/10/24 02:30:22;;;;;;;0.15;0.15;;;;;;;20.77;100.00;100172.25;10277826;28;20050;-81
2023/10/24 02:35:23;;;;;;;0.38;0.38;;;;;;;21.44;100.00;100165.91;10267820;28;20046;-82
2023/10/24 02:40:25;;;;;;;0.40;0.30;;;;;;;20.65;100.00;100164.72;10263626;28;20606;-81
2023/10/24 02:45:27;;;;;;;0.32;0.30;;;;;;;20.55;100.00;100159.72;10282920;28;20077;-81
2023/10/24 02:50:28;;;;;;;0.20;0.20;;;;;;;19.84;100.00;100177.25;10285398;28;20047;-81
2023/10/24 02:55:30;;;;;;;1.42;1.15;;;;;;;21.13;100.00;100171.22;10265551;28;20047;-81
2023/10/24 03:00:31;;;;;;;0.40;0.40;;;;;;;20.88;100.00;100171.94;10277652;28;20039;-81
2023/10/24 03:05:35;;;;;;;0.47;0.20;;;;;;;21.30;100.00;100182.03;10289536;28;20038;-81
2023/10/24 03:10:41;;;;;;;0.38;0.30;;;;;;;21.29;100.00;100188.22;10295542;28;20415;-82
2023/10/24 03:15:43;;;;;;;0.45;0.30;;;;;;;21.14;100.00;100184.28;10283368;28;20038;-80
2023/10/24 03:20:45;;;;;;;0.75;0.40;;;;;;;21.11;100.00;100183.50;10285785;28;20058;-81
2023/10/24 03:25:46;;;;;;;0.50;0.40;;;;;;;20.90;100.00;100186.69;10289994;28;20050;-83
2023/10/24 03:30:48;;;;;;;0.30;0.30;;;;;;;21.04;100.00;100182.81;10281773;28;20134;-81
2023/10/24 03:35:50;;;;;;;0.88;0.85;;;;;;;20.86;100.00;100179.84;10285442;28;20540;-80
2023/10/24 03:40:52;;;;;;;0.20;0.20;;;;;;;20.75;100.00;100188.00;10268809;28;20047;-80
2023/10/24 03:45:54;;;;;;;0.55;0.47;;;;;;;21.54;100.00;100182.19;10265118;28;20510;-80
2023/10/24 03:50:58;;;;;;;0.13;0.13;;;;;;;21.19;100.00;100186.75;10279568;28;20042;-81
2023/10/24 03:56:00;;;;;;;0.17;0.17;;;;;;;21.53;100.00;100181.34;10280623;28;20043;-80
2023/10/24 04:01:06;;;;;;;0.10;0.05;;;;;;;21.59;100.00;100175.09;10282830;28;20051;-81
2023/10/24 04:06:11;;;;;;;0.20;0.10;;;;;;;20.90;100.00;100181.47;10266019;28;20077;-81
2023/10/24 04:11:17;;;;;;;0.15;0.15;;;;;;;21.13;100.00;100181.72;10272302;28;20494;-84
2023/10/24 04:16:19;;;;;;;0.28;0.10;;;;;;;20.69;100.00;100182.91;10287704;28;20046;-83
2023/10/24 04:21:20;;;;;;;0.10;0.05;;;;;;;20.64;100.00;100174.31;10283292;28;20503;-82
2023/10/24 04:26:22;;;;;;;0.25;0.25;;;;;;;20.01;100.00;100173.34;10285607;28;20047;-83
2023/10/24 04:31:23;;;;;;;1.35;0.88;;;;;;;20.47;100.00;100171.31;10262304;28;20049;-83
2023/10/24 04:36:25;;;;;;;0.17;0.17;;;;;;;20.06;100.00;100171.50;10270806;28;20047;-83
2023/10/24 04:41:27;;;;;;;0.00;0.00;;;;;;;20.52;100.00;100170.25;10284038;28;20484;-83
2023/10/24 04:46:28;;;;;;;0.52;0.22;;;;;;;20.35;100.00;100160.25;10285101;28;20051;-83
2023/10/24 04:51:30;;;;;;;1.75;0.95;;;;;;;20.37;100.00;100150.63;10303309;28;20039;-83
2023/10/24 04:56:31;;;;;;;0.90;0.80;;;;;;;20.24;100.00;100152.69;10290997;28;20046;-84
2023/10/24 05:01:37;;;;;;;0.68;0.60;;;;;;;20.25;100.00;100143.97;10287465;28;20055;-83
2023/10/24 05:06:39;;;;;;;2.03;0.38;;;;;;;20.79;100.00;100136.41;10291280;28;20065;-82
2023/10/24 05:11:40;;;;;;;0.00;0.00;;;;;;;20.25;100.00;100133.50;10283119;28;20043;-82
2023/10/24 05:16:42;;;;;;;0.28;0.25;;;;;;;20.25;100.00;100141.34;10292788;28;20046;-83
2023/10/24 05:21:43;;;;;;;0.40;0.15;;;;;;;20.49;100.00;100146.81;10297241;28;20061;-85
2023/10/24 05:26:45;;;;;;;2.10;0.88;;;;;;;19.17;100.00;100154.38;10295239;28;20039;-83
2023/10/24 05:31:46;;;;;;;0.20;0.20;;;;;;;19.76;100.00;100153.03;10290281;28;20054;-83
2023/10/24 05:36:49;;;;;;;0.28;0.28;;;;;;;19.91;100.00;100151.81;10288279;28;20098;-84
2023/10/24 05:41:51;;;;;;;0.93;0.65;;;;;;;20.29;100.00;100148.19;10292830;28;20066;-83
2023/10/24 05:46:53;;;;;;;0.75;0.43;;;;;;;20.03;100.00;100148.88;10285288;28;20506;-83
2023/10/24 05:51:56;;;;;;;0.30;0.30;;;;;;;19.45;100.00;100143.28;10281447;28;20082;-84
2023/10/24 05:56:58;;;;;;;0.40;0.38;;;;;;;20.16;100.00;100125.88;10285341;28;20540;-82
2023/10/24 06:01:59;;;;;;;0.90;0.35;;;;;;;19.82;100.00;100139.78;10286419;28;20035;-83
2023/10/24 06:07:02;;;;;;;0.47;0.22;;;;;;;20.59;100.00;100136.94;10287015;28;20054;-84
2023/10/24 06:12:04;;;;;;;0.93;0.35;;;;;;;19.79;100.00;100155.53;10261114;28;20061;-83
2023/10/24 06:17:05;;;;;;;0.45;0.40;;;;;;;19.65;100.00;100159.34;10278339;28;20052;-83
2023/10/24 06:22:07;;;;;;;0.63;0.10;;;;;;;20.06;100.00;100163.66;10281877;28;20049;-85
2023/10/24 06:27:10;;;;;;;0.73;0.63;;;;;;;20.02;100.00;100154.16;10289452;28;20039;-82
2023/10/24 06:32:12;;;;;;;0.35;0.28;;;;;;;20.00;100.00;100162.03;10282632;28;20078;-83
2023/10/24 06:37:14;;;;;;;2.65;0.43;;;;;;;19.40;100.00;100181.72;10285965;28;20043;-82
2023/10/24 06:42:15;;;;;;;1.30;0.17;;;;;;;20.40;100.00;100175.84;10279972;28;20050;-84
2023/10/24 06:47:17;;;;;;;0.75;0.45;;;;;;;19.19;100.00;100183.88;10288437;28;20058;-82
2023/10/24 06:52:18;;;;;;;0.88;0.45;;;;;;;20.83;100.00;100164.22;10284449;28;20046;-82
2023/10/24 06:57:20;;;;;;;0.22;0.17;;;;;;;19.41;100.00;100183.41;10273986;28;20106;-82
2023/10/24 07:02:21;;;;;;;0.80;0.28;;;;;;;19.76;100.00;100190.44;10264695;28;20086;-82
2023/10/24 07:07:23;;;;;;;0.35;0.35;;;;;;;19.54;100.00;100179.66;10263345;28;20139;-82
2023/10/24 07:12:24;;;;;;;0.45;0.45;;;;;;;19.40;100.00;100181.72;10288346;28;20066;-83
2023/10/24 07:17:26;;;;;;;0.50;0.47;;;;;;;19.08;100.00;100180.66;10277534;28;20042;-82
2023/10/24 07:22:28;;;;;;;0.28;0.28;;;;;;;20.05;100.00;100168.00;10276870;28;20042;-83
2023/10/24 07:27:30;;;;;;;0.28;0.03;;;;;;;19.73;100.00;100184.44;10284064;28;20043;-83
2023/10/24 07:32:31;;;;;;;0.90;0.57;;;;;;;19.60;100.00;100183.88;10280842;28;20708;-83
2023/10/24 07:37:35;;;;;;;0.93;0.50;;;;;;;19.45;100.00;100179.84;10282109;28;20106;-83
2023/10/24 07:42:37;;;;;;;0.90;0.73;;;;;;;19.36;100.00;100177.44;10270336;28;20814;-82
2023/10/24 07:47:39;;;;;;;0.13;0.08;;;;;;;19.13;100.00;100170.97;10279135;28;20066;-83
2023/10/24 07:52:41;;;;;;;0.80;0.32;;;;;;;19.72;100.00;100162.69;10285379;28;20043;-83
2023/10/24 07:57:42;;;;;;;0.00;0.00;;;;;;;19.89;100.00;100149.25;10285541;28;20042;-82
2023/10/24 08:02:44;;;;;;;0.70;0.55;;;;;;;20.29;100.00;100137.72;10269104;28;20061;-83
2023/10/24 08:07:45;;;;;;;0.38;0.32;;;;;;;20.36;100.00;100129.75;10286661;28;20101;-84
2023/10/24 08:12:47;;;;;;;0.55;0.10;;;;;;;19.25;100.00;100126.31;10281419;28;20055;-85
2023/10/24 08:17:48;;;;;;;0.22;0.20;;;;;;;19.34;100.00;100110.44;10284390;28;20469;-83
2023/10/24 08:22:51;;;;;;;0.40;0.40;;;;;;;19.85;100.00;100131.91;10286692;28;20039;-84
2023/10/24 08:27:53;;;;;;;1.65;0.52;;;;;;;20.26;100.00;100134.34;10282730;28;20058;-83
2023/10/24 08:32:54;;;;;;;0.05;0.05;;;;;;;19.77;100.00;100137.28;10292257;28;20050;-84
2023/10/24 08:37:56;;;;;;;0.10;0.10;;;;;;;19.41;100.00;100139.00;10286438;28;20046;-83
2023/10/24 08:42:58;;;;;;;0.10;0.10;;;;;;;20.39;100.00;100133.13;10291064;28;20379;-83
2023/10/24 08:48:00;;;;;;;0.47;0.47;;;;;;;19.75;100.00;100161.75;10274860;28;20078;-83
2023/10/24 08:53:02;;;;;;;1.08;0.85;;;;;;;19.83;100.00;100172.88;10293869;28;20046;-83
2023/10/24 08:58:06;;;;;;;1.55;1.20;;;;;;;21.12;100.00;100174.75;10276237;28;20046;-83
2023/10/24 09:03:08;;;;;;;0.10;0.10;;;;;;;20.29;100.00;100170.88;10277172;28;20587;-82
2023/10/24 09:08:10;;;;;;;0.55;0.47;;;;;;;20.37;100.00;100170.66;10292130;28;20046;-82
2023/10/24 09:13:11;;;;;;;0.30;0.30;;;;;;;20.04;100.00;100191.56;10288392;28;20047;-83
2023/10/24 09:18:15;;;;;;;0.47;0.30;;;;;;;20.67;100.00;100178.59;10292840;28;20059;-83
2023/10/24 09:23:17;;;;;;;0.35;0.28;;;;;;;20.24;100.00;100176.25;10289773;28;20047;-82
2023/10/24 09:28:22;;;;;;;0.70;0.52;;;;;;;19.91;100.00;100168.38;10283931;28;20461;-82
2023/10/24 09:33:25;;;;;;;0.63;0.55;;;;;;;21.05;100.00;100147.88;10285045;28;20039;-82
2023/10/24 09:38:29;;;;;;;0.40;0.30;;;;;;;20.77;100.00;100146.91;10288593;28;20047;-83
2023/10/24 09:43:34;;;;;;;0.65;0.60;;;;;;;20.98;100.00;100135.88;10273306;28;20039;-84
2023/10/24 09:48:36;;;;;;;0.30;0.30;;;;;;;20.25;100.00;100138.72;10280542;28;20042;-84
2023/10/24 09:53:39;;;;;;;0.63;0.40;;;;;;;21.15;100.00;100136.22;10287338;28;20153;-84
2023/10/24 09:58:42;;;;;;;2.22;0.93;;;;;;;21.82;100.00;100147.25;10287482;28;20038;-83
2023/10/24 10:03:44;;;;;;;0.77;0.25;;;;;;;22.45;100.00;100147.75;10280471;28;20098;-84
2023/10/24 10:08:49;;;;;;;0.68;0.50;;;;;;;21.24;100.00;100153.41;10292455;28;20051;-83
2023/10/24 10:14:01;;;;;;;0.20;0.20;;;;;;;21.61;100.00;100146.22;10291149;28;20042;-85
2023/10/24 10:19:13;;;;;;;0.73;0.45;;;;;;;21.61;100.00;100146.22;10271912;28;20630;-84
2023/10/24 10:24:43;;;;;;;1.40;0.73;;;;;;;21.50;100.00;100149.16;10287432;28;20054;-84
2023/10/24 10:30:03;;;;;;;0.25;0.10;;;;;;;21.71;100.00;100143.25;10278458;28;20827;-84
2023/10/24 10:36:01;;;;;;;0.32;0.30;;;;;;;21.61;100.00;100131.34;10284222;28;20046;-84
2023/10/24 10:41:25;;;;;;;0.40;0.40;;;;;;;21.40;100.00;100119.75;10296750;28;20514;-83
2023/10/24 10:46:29;;;;;;;0.25;0.15;;;;;;;21.13;100.00;100113.63;10283573;28;20050;-85
2023/10/24 10:51:37;;;;;;;0.57;0.28;;;;;;;21.70;100.00;100115.31;10272315;28;20568;-84
2023/10/24 10:56:39;;;;;;;0.83;0.53;;;;;;;21.51;100.00;100111.56;10289118;28;20049;-86
2023/10/24 11:01:50;;;;;;;0.30;0.25;;;;;;;21.34;100.00;100104.22;10280912;28;20054;-85
2023/10/24 11:06:54;;;;;;;2.25;0.43;;;;;;;21.21;100.00;100107.22;10291876;28;20043;-85
2023/10/24 11:12:21;;;;;;;0.30;0.30;;;;;;;21.03;100.00;100107.81;10285947;28;20051;-84
2023/10/24 11:17:23;;;;;;;0.28;0.20;;;;;;;21.07;100.00;100107.63;10280947;28;20586;-84
2023/10/24 11:22:25;;;;;;;0.20;0.20;;;;;;;22.17;100.00;100100.63;10285768;28;20518;-83
2023/10/24 11:27:27;;;;;;;0.08;0.08;;;;;;;21.93;100.00;100089.25;10277942;28;20117;-83
2023/10/24 11:32:28;;;;;;;0.35;0.10;;;;;;;21.07;100.00;100109.41;10284927;28;20118;-85
2023/10/24 11:37:32;;;;;;;0.47;0.30;;;;;;;21.22;100.00;100108.94;10284205;28;20094;-84
2023/10/24 11:42:33;;;;;;;1.52;0.35;;;;;;;21.77;100.00;100095.00;10283945;28;20055;-84
2023/10/24 11:47:35;;;;;;;0.25;0.13;;;;;;;20.85;100.00;100098.75;10282776;28;20510;-84
2023/10/24 11:52:36;;;;;;;0.00;0.00;;;;;;;21.47;100.00;100102.94;10268599;28;20046;-83
2023/10/24 11:57:38;;;;;;;0.22;0.20;;;;;;;20.72;100.00;100099.09;10286163;28;20043;-85
2023/10/24 12:02:40;;;;;;;0.30;0.20;;;;;;;21.26;100.00;100099.22;10291841;28;20049;-84
2023/10/24 12:07:42;;;;;;;0.63;0.45;;;;;;;21.20;100.00;100105.50;10288709;28;20035;-84
2023/10/24 12:12:45;;;;;;;0.52;0.40;;;;;;;20.74;100.00;100099.91;10269724;28;20096;-86
2023/10/24 12:17:46;;;;;;;0.63;0.40;;;;;;;21.13;100.00;100098.75;10285041;28;20062;-83
2023/10/24 12:22:49;;;;;;;2.83;1.25;;;;;;;21.64;100.00;100104.16;10260626;28;20051;-84
2023/10/24 12:27:51;;;;;;;0.35;0.30;;;;;;;21.19;100.00;100103.78;10283890;28;20074;-86
2023/10/24 12:32:52;;;;;;;0.20;0.20;;;;;;;20.98;100.00;100104.44;10275831;28;20050;-83
2023/10/24 12:37:54;;;;;;;0.30;0.17;;;;;;;21.27;100.00;100089.59;10268118;28;20421;-85
2023/10/24 12:42:56;;;;;;;0.40;0.15;;;;;;;20.72;100.00;100098.22;10283627;28;20556;-84
2023/10/24 12:47:59;;;;;;;0.70;0.52;;;;;;;20.71;100.00;100093.88;10283366;28;20851;-83
2023/10/24 12:53:01;;;;;;;0.20;0.20;;;;;;;20.05;100.00;100096.56;10278545;28;20125;-83
2023/10/24 12:58:03;;;;;;;0.05;0.05;;;;;;;21.03;100.00;100095.56;10274923;28;20038;-83
2023/10/24 13:03:04;;;;;;;0.10;0.10;;;;;;;21.18;100.00;100086.38;10281533;28;20054;-85
2023/10/24 13:08:18;;;;;;;0.17;0.15;;;;;;;21.53;100.00;100071.28;10287829;28;20037;-84
2023/10/24 13:13:20;;;;;;;0.43;0.38;;;;;;;21.37;100.00;100075.31;10290445;28;20517;-85
2023/10/24 13:18:21;;;;;;;0.50;0.45;;;;;;;20.49;100.00;100065.72;10293652;28;20055;-84
2023/10/24 13:23:23;;;;;;;0.63;0.63;;;;;;;21.30;100.00;100064.16;10283775;28;20046;-85
2023/10/24 13:28:25;;;;;;;0.45;0.25;;;;;;;20.86;100.00;100064.66;10277041;28;20510;-84
2023/10/24 13:33:26;;;;;;;0.20;0.20;;;;;;;20.21;100.00;100045.56;10288035;28;20054;-83
2023/10/24 13:38:30;;;;;;;0.55;0.25;;;;;;;20.32;100.00;100055.72;10289626;28;20042;-84
2023/10/24 13:43:32;;;;;;;0.15;0.15;;;;;;;20.69;100.00;100064.25;10286415;28;20406;-85
2023/10/24 13:48:34;;;;;;;0.40;0.20;;;;;;;20.94;100.00;100032.16;10260451;28;20038;-86
2023/10/24 13:53:35;;;;;;;0.30;0.10;;;;;;;20.58;100.00;100065.44;10285964;28;20074;-84
2023/10/24 13:58:37;;;;;;;1.65;0.30;;;;;;;21.13;100.00;100072.56;10289107;28;20058;-85
2023/10/24 14:03:38;;;;;;;0.10;0.10;;;;;;;22.10;100.00;100083.41;10271416;28;20502;-84
2023/10/24 14:08:40;;;;;;;0.20;0.20;;;;;;;22.62;100.00;100085.94;10289434;28;20105;-86
2023/10/24 14:13:42;;;;;;;1.02;0.43;;;;;;;22.86;100.00;100080.66;10275027;28;20066;-87
2023/10/24 14:18:43;;;;;;;0.43;0.25;;;;;;;20.73;100.00;100073.78;10279084;28;20058;-85
2023/10/24 14:23:45;;;;;;;0.20;0.20;;;;;;;20.54;100.00;100083.91;10281615;28;20051;-84
2023/10/24 14:28:47;;;;;;;0.00;0.00;;;;;;;20.19;100.00;100089.22;10279274;28;20066;-85
2023/10/24 14:33:48;;;;;;;0.00;0.00;;;;;;;20.68;100.00;100091.34;10273433;28;20051;-83
2023/10/24 14:38:50;;;;;;;0.10;0.00;;;;;;;20.03;100.00;100087.88;10286239;28;20046;-82
2023/10/24 14:43:53;;;;;;;0.30;0.10;;;;;;;20.85;100.00;100096.97;10282633;28;20039;-82
2023/10/24 14:48:54;;;;;;;0.60;0.25;;;;;;;20.81;100.00;100103.22;10286927;28;20487;-83
2023/10/24 14:53:56;;;;;;;0.05;0.05;;;;;;;21.05;100.00;100093.75;10279088;28;20054;-83
2023/10/24 14:58:57;;;;;;;0.00;0.00;;;;;;;19.80;100.00;100098.03;10284950;28;20063;-82
2023/10/24 15:03:59;;;;;;;0.00;0.00;;;;;;;20.07;100.00;100095.63;10285815;28;20046;-82
2023/10/24 15:09:01;;;;;;;0.20;0.10;;;;;;;20.16;100.00;100104.97;10277077;28;20076;-82
2023/10/24 15:14:03;;;;;;;1.27;0.30;;;;;;;19.97;100.00;100086.28;10290150;28;20039;-82
2023/10/24 15:19:05;;;;;;;0.00;0.00;;;;;;;20.67;100.00;100087.88;10286189;28;20055;-82
2023/10/24 15:24:07;;;;;;;0.00;0.00;;;;;;;20.58;100.00;100083.78;10286058;28;20042;-82
2023/10/24 15:29:09;;;;;;;0.10;0.10;;;;;;;20.17;100.00;100072.69;10287427;28;20093;-82
2023/10/24 15:34:11;;;;;;;0.47;0.35;;;;;;;20.88;100.00;100068.09;10274971;28;20037;-82
2023/10/24 15:39:13;;;;;;;1.02;0.20;;;;;;;19.82;100.00;100069.22;10279171;28;20161;-82
2023/10/24 15:44:15;;;;;;;3.70;0.85;;;;;;;20.48;100.00;100069.22;10281972;28;20047;-82
2023/10/24 15:49:16;;;;;;;0.43;0.20;;;;;;;20.41;100.00;100072.91;10266700;28;20126;-81
2023/10/24 15:54:18;;;;;;;0.75;0.43;;;;;;;21.04;100.00;100068.47;10286995;28;20051;-82
2023/10/24 15:59:19;;;;;;;0.15;0.15;;;;;;;20.15;100.00;100077.09;10283009;28;20055;-82
2023/10/24 16:04:21;;;;;;;0.20;0.15;;;;;;;20.86;100.00;100076.88;10275385;28;20043;-82
2023/10/24 16:09:24;;;;;;;1.02;0.75;;;;;;;20.26;100.00;100072.44;10288905;28;20135;-82
2023/10/24 16:14:25;;;;;;;1.60;0.57;;;;;;;20.32;100.00;100067.94;10284088;28;20101;-82
2023/10/24 16:19:27;;;;;;;0.20;0.20;;;;;;;20.19;100.00;100068.28;10286082;28;20058;-83
2023/10/24 16:24:29;;;;;;;0.88;0.40;;;;;;;20.23;100.00;100072.50;10285465;28;20047;-82
2023/10/24 16:29:30;;;;;;;0.57;0.50;;;;;;;20.16;100.00;100077.97;10280804;28;20050;-81
2023/10/24 16:34:32;;;;;;;0.38;0.30;;;;;;;19.71;100.00;100073.84;10284142;28;20039;-81
2023/10/24 16:39:34;;;;;;;0.20;0.20;;;;;;;19.38;100.00;100079.88;10282429;28;20070;-82
2023/10/24 16:44:35;;;;;;;0.20;0.20;;;;;;;19.96;100.00;100076.72;10282530;28;20556;-81
2023/10/24 16:49:37;;;;;;;0.10;0.10;;;;;;;19.56;100.00;100098.63;10287798;28;20042;-82
2023/10/24 16:54:38;;;;;;;0.10;0.10;;;;;;;19.10;100.00;100097.94;10290047;28;20139;-81
2023/10/24 16:59:40;;;;;;;0.70;0.47;;;;;;;19.63;100.00;100095.81;10288909;28;20093;-81
2023/10/24 17:04:42;;;;;;;0.08;0.08;;;;;;;20.02;100.00;100096.63;10290654;28;20035;-81
2023/10/24 17:09:44;;;;;;;0.47;0.22;;;;;;;19.81;100.00;100094.50;10283352;28;20121;-82
2023/10/24 17:14:45;;;;;;;0.80;0.80;;;;;;;19.77;100.00;100102.47;10288641;28;20058;-83
2023/10/24 17:19:49;;;;;;;0.50;0.30;;;;;;;19.51;100.00;100106.56;10276415;28;20062;-83
2023/10/24 17:24:51;;;;;;;0.05;0.05;;;;;;;19.65;100.00;100108.84;10292804;28;20062;-81
2023/10/24 17:29:52;;;;;;;0.38;0.30;;;;;;;19.89;100.00;100104.81;10284875;28;20529;-81
2023/10/24 17:34:55;;;;;;;0.70;0.40;;;;;;;20.13;100.00;100102.44;10288250;28;20061;-81
2023/10/24 17:39:57;;;;;;;0.38;0.32;;;;;;;19.44;100.00;100107.59;10271258;28;20055;-81
2023/10/24 17:44:58;;;;;;;0.20;0.20;;;;;;;19.43;100.00;100118.94;10287991;28;20137;-81
2023/10/24 17:50:01;;;;;;;0.30;0.30;;;;;;;19.40;100.00;100113.81;10286670;28;20057;-81
2023/10/24 17:55:03;;;;;;;0.20;0.20;;;;;;;18.96;100.00;100126.97;10288974;28;20046;-81
2023/10/24 18:00:05;;;;;;;0.35;0.35;;;;;;;18.89;100.00;100127.94;10288191;28;20046;-81
2023/10/24 18:05:07;;;;;;;0.45;0.28;;;;;;;18.63;100.00;100127.59;10287824;28;20453;-81
2023/10/24 18:10:10;;;;;;;0.20;0.20;;;;;;;19.10;100.00;100129.28;10268647;28;20065;-81
2023/10/24 18:15:12;;;;;;;0.10;0.10;;;;;;;18.87;100.00;100130.59;10288662;28;20043;-81
2023/10/24 18:20:13;;;;;;;0.80;0.30;;;;;;;19.18;100.00;100127.34;10282884;28;20046;-81
2023/10/24 18:25:15;;;;;;;0.10;0.10;;;;;;;18.85;100.00;100125.38;10281041;28;20043;-82
2023/10/24 18:30:17;;;;;;;0.68;0.40;;;;;;;18.55;100.00;100121.66;10290756;28;20390;-82
2023/10/24 18:35:19;;;;;;;1.02;0.45;;;;;;;19.18;100.00;100122.09;10289629;28;20050;-81
2023/10/24 18:40:20;;;;;;;0.15;0.10;;;;;;;18.67;100.00;100113.59;10288326;28;20043;-80
2023/10/24 18:45:26;;;;;;;0.22;0.22;;;;;;;18.83;100.00;100127.19;10286539;28;20043;-82
2023/10/24 18:50:27;;;;;;;0.28;0.28;;;;;;;18.32;100.00;100119.47;10285668;28;20043;-82
2023/10/24 18:55:29;;;;;;;0.00;0.00;;;;;;;18.63;100.00;100122.38;10286245;28;20129;-82
2023/10/24 19:00:32;;;;;;;0.43;0.40;;;;;;;19.23;100.00;100122.00;10268311;28;20080;-82
2023/10/24 19:05:34;;;;;;;1.42;0.75;;;;;;;19.39;100.00;100117.31;10279934;28;20604;-81
2023/10/24 19:10:36;;;;;;;0.40;0.30;;;;;;;19.36;100.00;100125.22;10282560;28;20043;-82
2023/10/24 19:15:38;;;;;;;0.10;0.10;;;;;;;19.28;100.00;100128.84;10276350;28;20053;-81
2023/10/24 19:20:41;;;;;;;0.52;0.43;;;;;;;19.32;100.00;100127.88;10274858;28;20469;-81
2023/10/24 19:25:44;;;;;;;0.45;0.45;;;;;;;18.52;100.00;100129.53;10274002;28;20793;-81
2023/10/24 19:30:45;;;;;;;0.40;0.32;;;;;;;18.78;100.00;100130.78;10280290;28;20051;-82
2023/10/24 19:35:48;;;;;;;0.10;0.10;;;;;;;19.11;100.00;100128.34;10275759;28;20079;-81
2023/10/24 19:40:50;;;;;;;0.20;0.20;;;;;;;19.03;100.00;100132.00;10278417;28;20541;-82
2023/10/24 19:45:52;;;;;;;0.65;0.32;;;;;;;18.45;100.00;100130.53;10279696;28;20101;-81
2023/10/24 19:50:54;;;;;;;0.20;0.20;;;;;;;18.43;100.00;100134.94;10259307;28;20589;-82
2023/10/24 19:55:58;;;;;;;0.17;0.17;;;;;;;18.42;100.00;100135.84;10270048;28;20046;-82
2023/10/24 20:01:00;;;;;;;0.20;0.20;;;;;;;18.65;100.00;100144.06;10271743;28;20314;-82
2023/10/24 20:06:03;;;;;;;0.43;0.35;;;;;;;19.08;100.00;100137.13;10276810;28;20490;-81
2023/10/24 20:11:06;;;;;;;1.38;0.55;;;;;;;18.73;100.00;100130.03;10270030;28;20047;-82
2023/10/24 20:16:33;;;;;;;0.47;0.30;;;;;;;19.19;100.00;100126.44;10274087;28;20506;-82
2023/10/24 20:21:35;;;;;;;0.40;0.40;;;;;;;18.97;100.00;100126.91;10254885;28;20134;-83
2023/10/24 20:26:37;;;;;;;0.47;0.30;;;;;;;18.09;100.00;100126.00;10283545;28;20536;-82
2023/10/24 20:31:39;;;;;;;0.47;0.20;;;;;;;18.22;100.00;100131.81;10285620;28;20465;-81
2023/10/24 20:36:41;;;;;;;1.60;0.55;;;;;;;18.14;100.00;100123.28;10291337;28;20118;-83
2023/10/24 20:41:42;;;;;;;0.32;0.17;;;;;;;18.27;100.00;100130.03;10272521;28;20047;-83
2023/10/24 20:46:44;;;;;;;0.52;0.40;;;;;;;17.82;100.00;100122.94;10266111;28;20055;-83
2023/10/24 20:51:45;;;;;;;0.32;0.32;;;;;;;18.17;100.00;100125.84;10287490;28;20051;-83
2023/10/24 20:56:47;;;;;;;0.52;0.35;;;;;;;18.30;100.00;100127.34;10286285;28;20057;-81
2023/10/24 21:01:49;;;;;;;0.43;0.20;;;;;;;18.13;100.00;100124.19;10278734;28;20051;-81
2023/10/24 21:06:51;;;;;;;4.43;1.50;;;;;;;18.62;100.00;100125.88;10284076;28;20043;-82
2023/10/24 21:11:52;;;;;;;2.42;0.45;;;;;;;18.28;100.00;100118.69;10286104;28;20065;-82
2023/10/24 21:16:54;;;;;;;0.52;0.40;;;;;;;18.54;100.00;100117.34;10286566;28;20069;-82
2023/10/24 21:21:55;;;;;;;4.28;0.08;;;;;;;18.59;100.00;100125.06;10277927;28;20079;-82
2023/10/24 21:26:57;;;;;;;1.33;0.28;;;;;;;18.90;100.00;100117.47;10267524;28;20082;-81
2023/10/24 21:31:59;;;;;;;0.25;0.20;;;;;;;18.47;100.00;100120.94;10284649;28;20061;-82
2023/10/24 21:37:01;;;;;;;0.28;0.10;;;;;;;18.01;100.00;100122.66;10308477;28;20074;-82
2023/10/24 21:42:03;;;;;;;0.00;0.00;;;;;;;17.59;100.00;100120.69;10297850;28;20061;-84
2023/10/24 21:47:04;;;;;;;0.28;0.17;;;;;;;18.39;100.00;100116.75;10295293;28;20101;-82
2023/10/24 21:52:06;;;;;;;1.23;0.57;;;;;;;18.41;100.00;100116.69;10278407;28;20047;-83
2023/10/24 21:57:08;;;;;;;0.73;0.63;;;;;;;17.77;100.00;100120.41;10292083;28;20047;-82
2023/10/24 22:02:10;;;;;;;0.93;0.50;;;;;;;18.36;100.00;100121.16;10292383;28;20502;-83
2023/10/24 22:07:11;;;;;;;0.17;0.17;;;;;;;17.31;100.00;100113.31;10284438;28;20055;-82
2023/10/24 22:12:13;;;;;;;0.47;0.20;;;;;;;17.69;100.00;100111.84;10291441;28;20049;-83
2023/10/24 22:17:14;;;;;;;0.00;0.00;;;;;;;17.54;100.00;100112.97;10288033;28;20116;-82
2023/10/24 22:22:16;;;;;;;0.57;0.28;;;;;;;17.66;100.00;100111.91;10276490;28;20054;-82
2023/10/24 22:27:17;;;;;;;0.25;0.25;;;;;;;17.49;100.00;100112.19;10284700;28;20097;-83
2023/10/24 22:32:19;;;;;;;0.43;0.30;;;;;;;17.16;100.00;100117.00;10289906;28;20109;-82
2023/10/24 22:37:20;;;;;;;0.43;0.20;;;;;;;17.17;100.00;100116.09;10291162;28;20043;-82
2023/10/24 22:42:22;;;;;;;0.57;0.55;;;;;;;17.27;100.00;100109.03;10291263;28;20062;-85
2023/10/24 22:47:24;;;;;;;0.22;0.20;;;;;;;17.88;100.00;100101.13;10293722;28;20048;-83
2023/10/24 22:52:26;;;;;;;0.35;0.17;;;;;;;17.20;100.00;100113.44;10291977;28;20101;-82
2023/10/24 22:57:27;;;;;;;0.40;0.30;;;;;;;17.94;100.00;100101.03;10283579;28;20042;-82